createdAt,value
2023-02-25T00:01:57.814Z,2.53
2023-02-25T00:04:31.511Z,2.80
2023-02-25T00:06:59.382Z,2.40
2023-02-25T00:09:28.850Z,2.07
2023-02-25T00:11:56.769Z,2.33
2023-02-25T00:14:26.046Z,2.43
2023-02-25T00:16:56.067Z,2.10
2023-02-25T00:19:25.404Z,2.37
2023-02-25T00:21:55.209Z,2.47
2023-02-25T00:24:23.135Z,2.60
2023-02-25T00:26:51.149Z,3.10
2023-02-25T00:29:19.258Z,2.83
2023-02-25T00:31:51.322Z,2.43
2023-02-25T00:34:20.463Z,3.60
2023-02-25T00:36:50.151Z,3.10
2023-02-25T00:39:18.088Z,2.67
2023-02-25T00:41:46.325Z,3.23
2023-02-25T00:44:14.199Z,2.70
2023-02-25T00:46:42.291Z,3.20
2023-02-25T00:49:16.695Z,3.67
2023-02-25T00:51:49.258Z,3.30
2023-02-25T00:54:18.992Z,3.10
2023-02-25T00:56:46.813Z,3.10
2023-02-25T00:59:14.745Z,2.87
2023-02-25T01:01:42.842Z,3.40
2023-02-25T01:04:12.853Z,3.13
2023-02-25T01:06:40.842Z,3.30
2023-02-25T01:09:16.739Z,3.07
2023-02-25T01:11:47.703Z,3.80
2023-02-25T01:14:17.406Z,3.47
2023-02-25T01:16:45.913Z,4.03
2023-02-25T01:19:17.905Z,4.30
2023-02-25T01:21:47.349Z,4.33
2023-02-25T01:24:17.026Z,4.33
2023-02-25T01:26:46.894Z,4.40
2023-02-25T01:29:19.199Z,4.70
2023-02-25T01:31:47.850Z,5.13
2023-02-25T01:34:18.926Z,4.10
2023-02-25T01:36:47.712Z,4.90
2023-02-25T01:39:18.147Z,4.77
2023-02-25T01:41:48.723Z,5.20
2023-02-25T01:44:18.225Z,4.90
2023-02-25T01:46:47.757Z,4.30
2023-02-25T01:49:20.140Z,5.13
2023-02-25T01:51:50.923Z,5.20
2023-02-25T01:54:19.284Z,4.80
2023-02-25T01:56:50.428Z,5.00
2023-02-25T01:59:18.999Z,4.40
2023-02-25T02:01:46.871Z,4.70
2023-02-25T02:04:18.512Z,5.33
2023-02-25T02:06:49.431Z,4.37
2023-02-25T02:09:19.671Z,5.73
2023-02-25T02:11:51.866Z,5.13
2023-02-25T02:14:25.165Z,4.57
2023-02-25T02:17:08.201Z,5.37
2023-02-25T02:20:07.227Z,5.70
2023-02-25T02:22:43.348Z,4.47
2023-02-25T02:25:45.913Z,4.83
2023-02-25T02:29:09.937Z,4.30
2023-02-25T02:31:46.717Z,4.10
2023-02-25T02:34:26.072Z,5.40
2023-02-25T02:37:02.571Z,4.80
2023-02-25T02:39:37.414Z,3.97
2023-02-25T02:42:12.244Z,4.70
2023-02-25T02:44:45.320Z,4.23
2023-02-25T02:47:18.261Z,3.93
2023-02-25T02:49:51.726Z,3.87
2023-02-25T02:52:24.476Z,4.20
2023-02-25T02:54:56.110Z,3.53
2023-02-25T02:57:27.997Z,4.03
2023-02-25T02:59:58.064Z,4.10
2023-02-25T03:02:32.226Z,3.60
2023-02-25T03:05:04.418Z,3.83
2023-02-25T03:07:33.809Z,3.70
2023-02-25T03:10:08.875Z,4.20
2023-02-25T03:12:38.864Z,2.97
2023-02-25T03:15:09.060Z,3.50
2023-02-25T03:17:43.496Z,3.10
2023-02-25T03:20:14.352Z,4.50
2023-02-25T03:22:45.460Z,3.43
2023-02-25T03:25:17.293Z,3.53
2023-02-25T03:27:46.395Z,3.60
2023-02-25T03:30:22.914Z,3.40
2023-02-25T03:32:55.039Z,4.27
2023-02-25T03:35:27.156Z,3.73
2023-02-25T03:37:59.950Z,3.63
2023-02-25T03:40:28.452Z,4.17
2023-02-25T03:43:01.800Z,3.50
2023-02-25T03:45:30.456Z,3.40
2023-02-25T03:48:03.936Z,3.77
2023-02-25T03:50:36.996Z,3.10
2023-02-25T03:53:08.276Z,3.37
2023-02-25T03:56:05.309Z,3.90
2023-02-25T03:58:34.796Z,3.03
2023-02-25T04:01:05.552Z,3.50
2023-02-25T04:03:34.933Z,4.23
2023-02-25T04:06:03.319Z,3.23
2023-02-25T04:08:31.364Z,3.03
2023-02-25T04:10:59.227Z,2.77
2023-02-25T04:13:27.924Z,3.57
2023-02-25T04:15:55.870Z,4.53
2023-02-25T04:18:25.080Z,3.80
2023-02-25T04:20:55.055Z,3.73
2023-02-25T04:23:23.017Z,3.53
2023-02-25T04:25:51.342Z,3.43
2023-02-25T04:28:19.357Z,3.17
2023-02-25T04:30:47.279Z,3.50
2023-02-25T04:33:15.364Z,3.77
2023-02-25T04:35:44.252Z,3.90
2023-02-25T04:38:13.479Z,3.10
2023-02-25T04:40:41.770Z,3.50
2023-02-25T04:43:12.921Z,3.47
2023-02-25T04:45:40.884Z,3.83
2023-02-25T04:48:09.233Z,3.17
2023-02-25T04:50:37.275Z,3.40
2023-02-25T04:53:05.208Z,3.03
2023-02-25T04:55:36.750Z,4.43
2023-02-25T04:58:06.971Z,3.10
2023-02-25T05:00:35.021Z,3.00
2023-02-25T05:03:05.390Z,3.83
2023-02-25T05:05:33.228Z,3.40
2023-02-25T05:08:04.385Z,3.13
2023-02-25T05:10:32.227Z,3.50
2023-02-25T05:13:01.505Z,4.37
2023-02-25T05:15:29.910Z,3.73
2023-02-25T05:17:57.916Z,3.10
2023-02-25T05:20:25.802Z,3.50
2023-02-25T05:22:57.122Z,3.30
2023-02-25T05:25:25.864Z,2.93
2023-02-25T05:27:53.830Z,3.43
2023-02-25T05:30:25.132Z,2.60
2023-02-25T05:32:53.298Z,3.00
2023-02-25T05:35:22.167Z,3.80
2023-02-25T05:37:50.167Z,2.90
2023-02-25T05:40:20.351Z,2.80
2023-02-25T05:42:49.628Z,2.87
2023-02-25T05:45:18.312Z,2.90
2023-02-25T05:47:47.550Z,2.50
2023-02-25T05:50:18.402Z,2.70
2023-02-25T05:52:46.888Z,2.97
2023-02-25T05:55:16.177Z,2.30
2023-02-25T05:57:44.033Z,2.80
2023-02-25T06:00:15.618Z,3.23
2023-02-25T06:02:44.610Z,2.63
2023-02-25T06:05:14.080Z,2.50
2023-02-25T06:07:42.095Z,3.00
2023-02-25T06:10:11.571Z,2.57
2023-02-25T06:12:41.653Z,2.50
2023-02-25T06:15:10.069Z,2.70
2023-02-25T06:17:37.952Z,2.90
2023-02-25T06:20:07.754Z,2.90
2023-02-25T06:22:37.040Z,2.73
2023-02-25T06:25:05.399Z,2.73
2023-02-25T06:27:33.347Z,2.60
2023-02-25T06:30:02.671Z,2.50
2023-02-25T06:32:30.700Z,3.07
2023-02-25T06:34:58.645Z,2.97
2023-02-25T06:37:26.690Z,3.20
2023-02-25T06:39:55.980Z,2.77
2023-02-25T06:42:23.829Z,2.70
2023-02-25T06:44:51.794Z,2.60
2023-02-25T06:47:19.702Z,3.00
2023-02-25T06:49:47.590Z,2.63
2023-02-25T06:52:15.827Z,2.30
2023-02-25T06:54:43.715Z,3.10
2023-02-25T06:57:12.925Z,2.40
2023-02-25T06:59:40.774Z,3.00
2023-02-25T07:02:11.906Z,2.93
2023-02-25T07:04:42.963Z,3.17
2023-02-25T07:07:12.204Z,2.80
2023-02-25T07:09:40.093Z,2.43
2023-02-25T07:12:08.005Z,2.63
2023-02-25T07:14:37.528Z,2.70
2023-02-25T07:17:05.437Z,2.77
2023-02-25T07:19:33.343Z,3.20
2023-02-25T07:22:01.223Z,2.53
2023-02-25T07:24:29.155Z,2.73
2023-02-25T07:27:00.022Z,3.30
2023-02-25T07:29:28.470Z,2.77
2023-02-25T07:31:57.806Z,2.90
2023-02-25T07:34:25.879Z,3.13
2023-02-25T07:36:53.837Z,2.83
2023-02-25T07:39:21.712Z,3.20
2023-02-25T07:41:49.680Z,2.83
2023-02-25T07:44:20.727Z,3.07
2023-02-25T07:46:48.591Z,2.53
2023-02-25T07:49:17.777Z,3.00
2023-02-25T07:51:45.566Z,2.53
2023-02-25T07:54:15.472Z,3.20
2023-02-25T07:56:43.373Z,2.80
2023-02-25T07:59:11.386Z,2.70
2023-02-25T08:01:39.812Z,2.70
2023-02-25T08:04:09.090Z,2.87
2023-02-25T08:06:39.596Z,2.80
2023-02-25T08:09:07.847Z,3.07
2023-02-25T08:11:35.746Z,3.03
2023-02-25T08:14:05.656Z,3.57
2023-02-25T08:16:34.113Z,2.37
2023-02-25T08:19:03.906Z,2.80
2023-02-25T08:21:32.108Z,2.97
2023-02-25T08:24:01.617Z,4.00
2023-02-25T08:26:29.572Z,3.10
2023-02-25T08:28:57.826Z,2.90
2023-02-25T08:31:26.390Z,3.10
2023-02-25T08:33:57.723Z,3.47
2023-02-25T08:36:27.146Z,2.90
2023-02-25T08:38:57.157Z,3.10
2023-02-25T08:41:27.639Z,3.83
2023-02-25T08:43:56.694Z,3.53
2023-02-25T08:46:27.811Z,4.00
2023-02-25T08:48:55.977Z,2.83
2023-02-25T08:51:25.384Z,3.30
2023-02-25T08:53:53.372Z,3.20
2023-02-25T08:56:21.278Z,3.60
2023-02-25T08:58:50.442Z,2.97
2023-02-25T09:01:18.759Z,3.63
2023-02-25T09:03:53.852Z,3.80
2023-02-25T09:06:23.577Z,3.80
2023-02-25T09:08:52.226Z,3.47
2023-02-25T09:11:21.265Z,3.60
2023-02-25T09:13:50.633Z,4.20
2023-02-25T09:16:20.291Z,3.70
2023-02-25T09:18:50.203Z,4.13
2023-02-25T09:21:18.648Z,4.30
2023-02-25T09:23:46.765Z,4.10
2023-02-25T09:26:15.119Z,3.30
2023-02-25T09:28:43.011Z,4.30
2023-02-25T09:31:12.410Z,3.80
2023-02-25T09:33:42.699Z,4.40
2023-02-25T09:36:12.316Z,3.47
2023-02-25T09:38:41.868Z,4.30
2023-02-25T09:41:24.276Z,4.37
2023-02-25T09:44:02.990Z,3.40
2023-02-25T09:46:33.235Z,3.87
2023-02-25T09:49:04.264Z,4.30
2023-02-25T09:51:34.436Z,3.97
2023-02-25T09:54:10.642Z,3.67
2023-02-25T09:56:39.492Z,3.70
2023-02-25T09:59:13.080Z,3.97
2023-02-25T10:01:45.690Z,3.10
2023-02-25T10:04:17.835Z,3.00
2023-02-25T10:06:48.949Z,2.50
2023-02-25T10:09:23.176Z,3.30
2023-02-25T10:11:54.054Z,2.50
2023-02-25T10:14:41.480Z,2.90
2023-02-25T10:17:15.959Z,2.47
2023-02-25T10:19:53.334Z,3.10
2023-02-25T10:22:30.504Z,3.40
2023-02-25T10:25:01.017Z,3.10
2023-02-25T10:27:32.977Z,3.70
2023-02-25T10:30:04.055Z,3.23
2023-02-25T10:32:36.271Z,2.90
2023-02-25T10:35:15.569Z,2.93
2023-02-25T10:37:43.672Z,3.10
2023-02-25T10:40:16.037Z,3.40
2023-02-25T10:42:46.911Z,3.57
2023-02-25T10:45:18.952Z,2.70
2023-02-25T10:47:50.372Z,2.70
2023-02-25T10:50:29.828Z,2.57
2023-02-25T10:53:04.997Z,1.93
2023-02-25T10:55:51.386Z,2.80
2023-02-25T10:58:25.861Z,2.03
2023-02-25T11:01:00.722Z,3.50
2023-02-25T11:03:31.732Z,2.33
2023-02-25T11:06:14.177Z,2.60
2023-02-25T11:08:44.186Z,2.70
2023-02-25T11:11:19.953Z,3.00
2023-02-25T11:14:06.285Z,2.70
2023-02-25T11:16:36.517Z,2.30
2023-02-25T11:19:14.954Z,2.70
2023-02-25T11:21:43.204Z,2.57
2023-02-25T11:24:15.584Z,2.70
2023-02-25T11:26:45.759Z,1.97
2023-02-25T11:29:15.855Z,1.87
2023-02-25T11:31:44.557Z,2.00
2023-02-25T11:34:21.696Z,2.03
2023-02-25T11:36:51.229Z,2.33
2023-02-25T11:39:22.677Z,2.30
2023-02-25T11:41:54.838Z,1.90
2023-02-25T11:44:28.535Z,2.30
2023-02-25T11:47:03.473Z,1.70
2023-02-25T11:49:47.540Z,1.90
2023-02-25T11:52:20.341Z,1.70
2023-02-25T11:54:58.150Z,1.60
2023-02-25T11:57:33.780Z,1.87
2023-02-25T12:00:13.422Z,2.30
2023-02-25T12:02:49.528Z,1.73
2023-02-25T12:05:29.010Z,2.77
2023-02-25T12:08:13.511Z,2.30
2023-02-25T12:11:17.619Z,2.20
2023-02-25T12:14:19.247Z,1.83
2023-02-25T12:17:12.383Z,2.10
2023-02-25T12:20:04.798Z,2.40
2023-02-25T12:22:56.442Z,2.00
2023-02-25T12:25:32.008Z,2.50
2023-02-25T12:28:07.549Z,2.10
2023-02-25T12:30:44.845Z,2.27
2023-02-25T12:33:25.272Z,1.80
2023-02-25T12:36:03.858Z,2.50
2023-02-25T12:38:58.464Z,3.30
2023-02-25T12:41:38.413Z,2.57
2023-02-25T12:44:20.366Z,2.80
2023-02-25T12:47:14.355Z,3.10
2023-02-25T12:49:57.972Z,2.90
2023-02-25T12:52:35.630Z,3.10
2023-02-25T12:55:27.169Z,3.80
2023-02-25T12:58:37.160Z,2.87
2023-02-25T13:01:15.871Z,2.83
2023-02-25T13:04:14.966Z,2.77
2023-02-25T13:07:03.219Z,1.70
2023-02-25T13:09:49.656Z,2.47
2023-02-25T13:12:43.865Z,2.67
2023-02-25T13:15:18.309Z,2.50
2023-02-25T13:18:03.864Z,2.53
2023-02-25T13:20:48.634Z,3.17
2023-02-25T13:23:40.416Z,2.20
2023-02-25T13:26:22.681Z,2.97
2023-02-25T13:29:12.992Z,2.03
2023-02-25T13:31:46.911Z,1.70
2023-02-25T13:34:23.145Z,1.90
2023-02-25T13:37:02.575Z,1.63
2023-02-25T13:39:43.898Z,1.80
2023-02-25T13:42:32.222Z,2.17
2023-02-25T13:45:32.398Z,2.10
2023-02-25T13:48:17.969Z,2.00
2023-02-25T13:50:56.718Z,2.50
2023-02-25T13:53:37.778Z,2.27
2023-02-25T13:56:12.677Z,2.20
2023-02-25T13:58:54.776Z,1.97
2023-02-25T14:01:32.060Z,2.13
2023-02-25T14:04:35.197Z,2.50
2023-02-25T14:07:21.081Z,2.87
2023-02-25T14:09:53.699Z,1.43
2023-02-25T14:12:37.247Z,2.20
2023-02-25T14:15:22.821Z,1.80
2023-02-25T14:18:04.945Z,1.30
2023-02-25T14:20:40.987Z,1.30
2023-02-25T14:23:13.617Z,1.10
2023-02-25T14:25:56.360Z,1.10
2023-02-25T14:28:28.452Z,1.00
2023-02-25T14:31:07.634Z,1.20
2023-02-25T14:33:57.757Z,0.83
2023-02-25T14:36:52.150Z,1.20
2023-02-25T14:39:40.302Z,1.27
2023-02-25T14:42:28.654Z,1.00
2023-02-25T14:44:59.774Z,1.20
2023-02-25T14:47:29.690Z,1.60
2023-02-25T14:50:01.532Z,1.20
2023-02-25T14:52:50.948Z,1.33
2023-02-25T14:55:29.521Z,1.13
2023-02-25T14:58:12.940Z,1.37
2023-02-25T15:01:05.491Z,1.10
2023-02-25T15:04:00.651Z,1.30
2023-02-25T15:06:40.881Z,1.23
2023-02-25T15:09:44.076Z,1.40
2023-02-25T15:12:32.663Z,1.00
2023-02-25T15:15:30.161Z,0.90
2023-02-25T15:18:22.832Z,1.20
2023-02-25T15:20:51.167Z,1.00
2023-02-25T15:23:21.049Z,1.23
2023-02-25T15:25:53.264Z,1.10
2023-02-25T15:28:42.017Z,1.20
2023-02-25T15:31:28.652Z,1.50
2023-02-25T15:34:29.936Z,1.50
2023-02-25T15:37:25.761Z,1.43
2023-02-25T15:39:56.739Z,1.27
2023-02-25T15:42:55.390Z,1.40
2023-02-25T15:45:44.200Z,1.67
2023-02-25T15:48:29.822Z,1.23
2023-02-25T15:51:01.617Z,1.20
2023-02-25T15:53:49.031Z,1.40
2023-02-25T15:56:48.466Z,1.70
2023-02-25T15:59:42.423Z,1.30
2023-02-25T16:02:42.308Z,1.80
2023-02-25T16:05:33.503Z,1.47
2023-02-25T16:08:14.167Z,2.00
2023-02-25T16:10:43.659Z,1.87
2023-02-25T16:13:16.967Z,1.67
2023-02-25T16:15:47.399Z,2.40
2023-02-25T16:18:24.180Z,1.90
2023-02-25T16:20:54.763Z,1.90
2023-02-25T16:23:22.651Z,1.90
2023-02-25T16:25:59.845Z,1.80
2023-02-25T16:28:36.876Z,2.33
2023-02-25T16:31:10.927Z,1.90
2023-02-25T16:33:43.481Z,2.07
2023-02-25T16:36:16.644Z,1.93
2023-02-25T16:38:48.445Z,2.17
2023-02-25T16:41:16.822Z,2.30
2023-02-25T16:43:46.818Z,2.30
2023-02-25T16:46:16.754Z,2.20
2023-02-25T16:48:50.222Z,2.33
2023-02-25T16:51:23.938Z,2.33
2023-02-25T16:53:55.805Z,2.20
2023-02-25T16:56:26.452Z,2.40
2023-02-25T16:59:06.213Z,2.30
2023-02-25T17:01:35.728Z,2.03
2023-02-25T17:04:13.720Z,2.20
2023-02-25T17:06:41.650Z,2.47
2023-02-25T17:09:23.143Z,1.80
2023-02-25T17:11:54.882Z,2.10
2023-02-25T17:14:25.054Z,1.50
2023-02-25T17:16:53.275Z,1.60
2023-02-25T17:19:21.845Z,1.90
2023-02-25T17:21:52.955Z,1.70
2023-02-25T17:24:23.780Z,1.90
2023-02-25T17:26:53.554Z,2.30
2023-02-25T17:29:22.273Z,2.77
2023-02-25T17:31:53.559Z,1.80
2023-02-25T17:34:27.155Z,1.80
2023-02-25T17:36:55.596Z,1.77
2023-02-25T17:39:23.627Z,1.50
2023-02-25T17:41:53.305Z,1.73
2023-02-25T17:44:47.238Z,2.00
2023-02-25T17:47:22.754Z,1.97
2023-02-25T17:49:51.170Z,1.90
2023-02-25T17:52:20.685Z,1.60
2023-02-25T17:54:49.997Z,2.00
2023-02-25T17:57:20.677Z,1.63
2023-02-25T17:59:51.334Z,1.53
2023-02-25T18:02:32.813Z,1.90
2023-02-25T18:05:27.093Z,1.60
2023-02-25T18:08:17.621Z,1.83
2023-02-25T18:10:48.077Z,1.80
2023-02-25T18:13:35.630Z,1.43
2023-02-25T18:16:42.378Z,1.63
2023-02-25T18:19:20.400Z,1.87
2023-02-25T18:21:48.458Z,1.77
2023-02-25T18:24:28.007Z,1.40
2023-02-25T18:27:04.695Z,1.43
2023-02-25T18:29:33.186Z,1.67
2023-02-25T18:32:01.450Z,1.40
2023-02-25T18:34:30.792Z,1.43
2023-02-25T18:36:58.682Z,1.40
2023-02-25T18:39:27.419Z,1.30
2023-02-25T18:41:55.271Z,1.67
2023-02-25T18:44:23.133Z,1.23
2023-02-25T18:46:50.951Z,1.40
2023-02-25T18:49:19.779Z,1.37
2023-02-25T18:51:50.191Z,1.37
2023-02-25T18:54:18.194Z,2.00
2023-02-25T18:56:46.054Z,1.70
2023-02-25T18:59:13.902Z,2.43
2023-02-25T19:01:42.243Z,2.20
2023-02-25T19:04:16.539Z,2.47
2023-02-25T19:06:44.399Z,1.90
2023-02-25T19:09:13.650Z,1.90
2023-02-25T19:11:41.614Z,1.47
2023-02-25T19:14:09.569Z,1.67
2023-02-25T19:16:38.080Z,2.00
2023-02-25T19:19:06.759Z,1.60
2023-02-25T19:21:34.677Z,1.50
2023-02-25T19:24:02.902Z,1.63
2023-02-25T19:26:32.159Z,1.50
2023-02-25T19:29:00.895Z,1.60
2023-02-25T19:31:28.856Z,1.93
2023-02-25T19:33:57.147Z,1.77
2023-02-25T19:36:25.257Z,2.10
2023-02-25T19:38:53.288Z,2.30
2023-02-25T19:41:21.109Z,2.03
2023-02-25T19:43:50.534Z,1.90
2023-02-25T19:46:18.614Z,2.20
2023-02-25T19:48:46.522Z,2.20
2023-02-25T19:51:15.487Z,1.70
2023-02-25T19:53:43.298Z,2.27
2023-02-25T19:56:12.437Z,1.83
2023-02-25T19:58:40.266Z,2.50
2023-02-25T20:01:09.868Z,2.67
2023-02-25T20:03:37.806Z,2.67
2023-02-25T20:06:07.869Z,2.63
2023-02-25T20:08:36.774Z,2.23
2023-02-25T20:11:04.660Z,2.10
2023-02-25T20:13:32.492Z,2.10
2023-02-25T20:16:02.010Z,1.80
2023-02-25T20:18:31.275Z,1.80
2023-02-25T20:20:59.514Z,1.87
2023-02-25T20:23:27.370Z,2.27
2023-02-25T20:26:04.963Z,1.83
2023-02-25T20:28:32.809Z,1.90
2023-02-25T20:31:04.927Z,1.93
2023-02-25T20:33:34.611Z,2.03
2023-02-25T20:36:04.335Z,1.97
2023-02-25T20:38:35.970Z,1.90
2023-02-25T20:41:04.110Z,1.80
2023-02-25T20:43:32.096Z,2.10
2023-02-25T20:46:01.566Z,2.00
2023-02-25T20:48:32.438Z,1.80
2023-02-25T20:51:02.325Z,2.03
2023-02-25T20:53:30.581Z,1.70
2023-02-25T20:55:58.960Z,2.10
2023-02-25T20:58:26.833Z,2.00
2023-02-25T21:00:54.730Z,2.40
2023-02-25T21:03:22.559Z,2.80
2023-02-25T21:05:50.450Z,1.90
2023-02-25T21:08:19.678Z,2.10
2023-02-25T21:10:47.568Z,2.17
2023-02-25T21:13:15.930Z,2.47
2023-02-25T21:15:44.132Z,2.17
2023-02-25T21:18:11.995Z,2.40
2023-02-25T21:20:40.244Z,2.00
2023-02-25T21:23:10.977Z,2.13
2023-02-25T21:25:40.667Z,2.40
2023-02-25T21:28:08.574Z,2.70
2023-02-25T21:30:36.510Z,2.63
2023-02-25T21:33:06.366Z,2.20
2023-02-25T21:35:35.784Z,2.37
2023-02-25T21:38:04.168Z,2.90
2023-02-25T21:40:32.696Z,2.57
2023-02-25T21:43:01.913Z,2.10
2023-02-25T21:45:29.971Z,2.60
2023-02-25T21:48:00.708Z,2.20
2023-02-25T21:50:28.684Z,2.40
2023-02-25T21:52:57.293Z,2.37
2023-02-25T21:55:25.533Z,2.30
2023-02-25T21:57:53.685Z,2.30
2023-02-25T22:00:24.178Z,2.40
2023-02-25T22:02:52.562Z,2.40
2023-02-25T22:05:20.655Z,2.17
2023-02-25T22:07:48.612Z,2.20
2023-02-25T22:10:17.038Z,3.00
2023-02-25T22:12:44.971Z,2.57
2023-02-25T22:15:13.000Z,2.60
2023-02-25T22:17:42.386Z,2.90
2023-02-25T22:20:12.219Z,3.00
2023-02-25T22:22:40.145Z,2.73
2023-02-25T22:25:08.464Z,3.20
2023-02-25T22:27:36.345Z,2.80
2023-02-25T22:30:04.581Z,2.83
2023-02-25T22:32:32.454Z,2.47
2023-02-25T22:35:02.108Z,2.70
2023-02-25T22:37:29.983Z,2.60
2023-02-25T22:39:57.822Z,2.67
2023-02-25T22:42:26.134Z,2.90
2023-02-25T22:44:54.092Z,3.37
2023-02-25T22:47:21.938Z,2.90
2023-02-25T22:49:49.785Z,3.40
2023-02-25T22:52:18.997Z,3.23
2023-02-25T22:54:47.500Z,3.60
2023-02-25T22:57:16.315Z,2.90
2023-02-25T22:59:44.177Z,3.10
2023-02-25T23:02:12.486Z,3.23
2023-02-25T23:04:40.308Z,3.00
2023-02-25T23:07:08.162Z,2.80
2023-02-25T23:09:37.403Z,2.50
2023-02-25T23:12:05.728Z,3.00
2023-02-25T23:14:35.800Z,2.73
2023-02-25T23:17:04.555Z,3.40
2023-02-25T23:19:33.108Z,3.40
2023-02-25T23:22:01.079Z,2.80
2023-02-25T23:24:28.913Z,2.70
2023-02-25T23:27:01.091Z,2.83
2023-02-25T23:29:29.453Z,2.53
2023-02-25T23:31:57.586Z,2.77
2023-02-25T23:34:25.965Z,3.00
2023-02-25T23:36:56.137Z,2.60
2023-02-25T23:39:24.464Z,3.10
2023-02-25T23:41:52.379Z,3.27
2023-02-25T23:44:21.643Z,3.00
2023-02-25T23:46:49.543Z,3.27
2023-02-25T23:49:17.989Z,2.90
2023-02-25T23:51:47.240Z,3.20
2023-02-25T23:54:17.562Z,2.87
2023-02-25T23:56:45.755Z,2.60
2023-02-25T23:59:13.970Z,3.37
